El-djazair II — 7TBR — position and weather

sailwx.info

Track history (hours):
 
Tides and Currents Weather Stations Pressure Air Temp Water Temp Dewpoint Dewpoint Depression Visibility Wind Speed Wind Dir Waves Ship Positions

El-djazair II

Last reported at 2017-Jan-17 02:18 UTC. Time now 2017-Jan-20 20:16 UTC.
Position N 37°15' W 000°40'.

Length 146 m; draft 6.3 m.

Type: Passenger vessel. MMSI: 605026190.

Date/timePositionNaut miles runAvg speedWind from/ knotsBaromVisibWave heightAir tempDewpointWater temp
2017-Jan-17 02:18N 37°15' W 000°40'1520.6
2017-Jan-17 01:33N 37°31' W 000°39'2922.3
2017-Jan-17 00:16N 37°54' W 000°18'9115.9
2017-Jan-16 18:33N 39°25' W 000°16'3 3.3
2017-Jan-16 17:33N 39°27' W 000°20'0 0.0
2017-Jan-16 16:33N 39°27' W 000°20'0 0.0
2017-Jan-16 15:34N 39°27' W 000°20'0 0.0
2017-Jan-16 14:32N 39°27' W 000°20'0 0.0
2017-Jan-16 13:33N 39°27' W 000°20'0 0.0
2017-Jan-16 12:34N 39°27' W 000°20'0 0.0
2017-Jan-16 11:33N 39°27' W 000°20'0 0.0
2017-Jan-16 10:33N 39°27' W 000°20'3 2.8
2017-Jan-16 09:32N 39°25' W 000°17'2220.8
2017-Jan-16 08:27N 39°10' E 000°04'6817.5
2017-Jan-16 04:33N 38°02' W 000°06'2221.7
2017-Jan-16 03:33N 37°44' W 000°21'2120.7
2017-Jan-16 02:33N 37°25' W 000°33'  
2017-Jan-13 22:06N 38°11' W 000°12'13 0.8
2017-Jan-13 06:30N 38°19' W 000°24'17 8.6
2017-Jan-13 04:29N 38°07' W 000°08'1718.5
2017-Jan-13 03:33N 37°51' W 000°12'1918.7
2017-Jan-13 02:33N 37°32' W 000°16'1918.7
2017-Jan-13 01:33N 37°14' W 000°20'192 4.0
2017-Jan-11 01:14N 40°16' E 000°58'1522.6
2017-Jan-11 00:33N 40°26' E 001°12'2322.7
2017-Jan-10 23:33N 40°42' E 001°34'2222.4
2017-Jan-10 22:33N 40°58' E 001°54'  
2017-Jan-08 11:22N 43°14' E 005°18'  
Track history (hours):
 
Tides and Currents Weather Stations Pressure Air Temp Water Temp Dewpoint Dewpoint Depression Visibility Wind Speed Wind Dir Waves Ship Positions

El-djazair II

Last reported at 2017-Jan-17 02:18 UTC. Time now 2017-Jan-20 20:16 UTC.
Position N 37°15' W 000°40'.

Length 146 m; draft 6.3 m.

Type: Passenger vessel. MMSI: 605026190.

Date/timePositionNaut miles runAvg speedWind from/ knotsBaromVisibWave heightAir tempDewpointWater temp
2017-Jan-17 02:18N 37°15' W 000°40'1520.6
2017-Jan-17 01:33N 37°31' W 000°39'2922.3
2017-Jan-17 00:16N 37°54' W 000°18'9115.9
2017-Jan-16 18:33N 39°25' W 000°16'3 3.3
2017-Jan-16 17:33N 39°27' W 000°20'0 0.0
2017-Jan-16 16:33N 39°27' W 000°20'0 0.0
2017-Jan-16 15:34N 39°27' W 000°20'0 0.0
2017-Jan-16 14:32N 39°27' W 000°20'0 0.0
2017-Jan-16 13:33N 39°27' W 000°20'0 0.0
2017-Jan-16 12:34N 39°27' W 000°20'0 0.0
2017-Jan-16 11:33N 39°27' W 000°20'0 0.0
2017-Jan-16 10:33N 39°27' W 000°20'3 2.8
2017-Jan-16 09:32N 39°25' W 000°17'2220.8
2017-Jan-16 08:27N 39°10' E 000°04'6817.5
2017-Jan-16 04:33N 38°02' W 000°06'2221.7
2017-Jan-16 03:33N 37°44' W 000°21'2120.7
2017-Jan-16 02:33N 37°25' W 000°33'  
2017-Jan-13 22:06N 38°11' W 000°12'13 0.8
2017-Jan-13 06:30N 38°19' W 000°24'17 8.6
2017-Jan-13 04:29N 38°07' W 000°08'1718.5
2017-Jan-13 03:33N 37°51' W 000°12'1918.7
2017-Jan-13 02:33N 37°32' W 000°16'1918.7
2017-Jan-13 01:33N 37°14' W 000°20'192 4.0
2017-Jan-11 01:14N 40°16' E 000°58'1522.6
2017-Jan-11 00:33N 40°26' E 001°12'2322.7
2017-Jan-10 23:33N 40°42' E 001°34'2222.4
2017-Jan-10 22:33N 40°58' E 001°54'  
2017-Jan-08 11:22N 43°14' E 005°18'  

Dump ship's entire track history